Time;durP1;ratioP1;P1;durP2;ratioP2;P2;SDS_P1;SDS_P2;PMS_P1;PMS_P2;Temp;Humidity;BMP_temperature;BMP_pressure;BME280_temperature;BME280_humidity;BME280_pressure;Samples;Min_cycle;Max_cycle;Signal;HPM_P1;HPM_P2
2022/10/07 03:53:39;;;;;;;;;;;21.60;97.00;;;;;;5639342;22;20307;-78
2022/10/07 03:56:05;;;;;;;;;;;21.60;97.00;;;;;;4971380;28;1795525;-78
2022/10/07 03:58:32;;;;;;;;;;;21.60;97.00;;;;;;5034276;28;20015;-78
2022/10/07 04:01:09;;;;;;;;;;;21.60;97.00;;;;;;5034048;28;20012;-79
2022/10/07 04:03:35;;;;;;;;;;;21.60;97.00;;;;;;5035200;28;19925;-79
2022/10/07 04:06:02;;;;;;;;;;;21.60;97.00;;;;;;5035013;28;20372;-80
2022/10/07 04:08:31;;;;;;;;;;;21.60;97.00;;;;;;5033300;28;19976;-77
2022/10/07 04:11:00;;;;;;;;;;;21.60;97.00;;;;;;5036250;28;19972;-79
2022/10/07 04:13:26;;;;;;;;;;;21.60;97.00;;;;;;5034745;28;20012;-78
2022/10/07 04:15:53;;;;;;;;;;;21.50;97.00;;;;;;5036191;28;20016;-76
2022/10/07 04:18:20;;;;;;;;;;;21.60;97.00;;;;;;5033346;28;19971;-76
2022/10/07 04:20:47;;;;;;;;;;;21.60;97.00;;;;;;5033218;28;19935;-77
2022/10/07 04:23:13;;;;;;;;;;;21.50;97.00;;;;;;5033274;28;20435;-76
2022/10/07 04:25:42;;;;;;;;;;;21.60;97.10;;;;;;5033439;28;19979;-77
2022/10/07 04:28:14;;;;;;;;;;;21.60;97.20;;;;;;5033942;28;19940;-77
2022/10/07 04:30:42;;;;;;;;;;;21.60;97.30;;;;;;5037188;28;20031;-77
2022/10/07 04:33:09;;;;;;;;;;;21.60;97.40;;;;;;5036490;28;19925;-77
2022/10/07 04:35:37;;;;;;;;;;;21.60;97.50;;;;;;5037561;28;20024;-78
2022/10/07 04:38:05;;;;;;;;;;;21.60;97.50;;;;;;5037600;28;19926;-74
2022/10/07 04:40:31;;;;;;;;;;;21.60;97.60;;;;;;5036978;28;19925;-78
2022/10/07 04:45:43;;;;;;;;;;;21.70;97.90;;;;;;5044779;23;20389;-78
2022/10/07 04:48:10;;;;;;;;;;;21.70;98.00;;;;;;5036663;28;20020;-77
2022/10/07 04:50:37;;;;;;;;;;;21.70;98.10;;;;;;5036590;28;19925;-77
2022/10/07 04:53:05;;;;;;;;;;;21.70;98.10;;;;;;5036470;28;19925;-77
2022/10/07 04:55:35;;;;;;;;;;;21.70;98.10;;;;;;5036155;28;20347;-77
2022/10/07 04:58:02;;;;;;;;;;;21.70;98.20;;;;;;5036482;28;19931;-77
2022/10/07 05:00:29;;;;;;;;;;;21.80;98.30;;;;;;5035974;28;20455;-77
2022/10/07 05:02:57;;;;;;;;;;;21.70;98.30;;;;;;5036352;28;19925;-78
2022/10/07 05:05:24;;;;;;;;;;;21.80;98.40;;;;;;5036237;28;19925;-77
2022/10/07 05:07:51;;;;;;;;;;;21.80;98.50;;;;;;5035963;28;20368;-77
2022/10/07 05:10:18;;;;;;;;;;;21.80;98.40;;;;;;5035957;28;20348;-78
2022/10/07 05:12:45;;;;;;;;;;;21.80;98.40;;;;;;5036196;28;20016;-78
2022/10/07 05:15:12;;;;;;;;;;;21.70;98.30;;;;;;5035737;28;20017;-78
2022/10/07 05:17:39;;;;;;;;;;;21.80;98.70;;;;;;5036058;28;19925;-77
2022/10/07 05:20:08;;;;;;;;;;;21.80;98.30;;;;;;5035638;28;20432;-77
2022/10/07 05:22:35;;;;;;;;;;;21.80;98.30;;;;;;5035687;28;20380;-77
2022/10/07 05:25:02;;;;;;;;;;;21.80;98.20;;;;;;5035881;28;20027;-77
2022/10/07 05:27:29;;;;;;;;;;;21.80;98.20;;;;;;5035975;28;19971;-77
2022/10/07 05:29:56;;;;;;;;;;;21.80;98.10;;;;;;5035858;28;19925;-77
2022/10/07 05:32:22;;;;;;;;;;;21.80;98.10;;;;;;5035806;28;20024;-77
2022/10/07 05:34:49;;;;;;;;;;;21.80;98.00;;;;;;5035947;28;20012;-77
2022/10/07 05:37:17;;;;;;;;;;;21.80;98.00;;;;;;5035719;28;20024;-77
2022/10/07 05:39:44;;;;;;;;;;;21.80;97.90;;;;;;5034136;28;20359;-77
2022/10/07 05:42:12;;;;;;;;;;;21.70;97.80;;;;;;5035931;28;20351;-77
2022/10/07 05:44:38;;;;;;;;;;;21.70;97.80;;;;;;5035115;28;19929;-77
2022/10/07 05:47:05;;;;;;;;;;;21.80;97.80;;;;;;5035599;28;19979;-77
2022/10/07 05:49:32;;;;;;;;;;;21.70;97.70;;;;;;5035154;28;20021;-77
2022/10/07 05:51:58;;;;;;;;;;;21.70;97.60;;;;;;5035119;28;20348;-77
2022/10/07 05:54:26;;;;;;;;;;;21.70;97.60;;;;;;5035448;28;19987;-77
2022/10/07 05:56:53;;;;;;;;;;;21.70;97.50;;;;;;5035278;28;20008;-77
2022/10/07 05:59:20;;;;;;;;;;;21.70;97.50;;;;;;5035009;28;19932;-77
2022/10/07 06:01:47;;;;;;;;;;;21.70;97.40;;;;;;5034801;28;20448;-77
2022/10/07 06:04:14;;;;;;;;;;;21.70;97.40;;;;;;5035089;28;20012;-77
2022/10/07 06:06:40;;;;;;;;;;;21.70;97.30;;;;;;5034795;28;20019;-77
2022/10/07 06:14:36;;;;;;;;;;;21.70;97.20;;;;;;5034736;28;20020;-77
2022/10/07 06:17:04;;;;;;;;;;;21.70;97.10;;;;;;5034886;28;19968;-78
2022/10/07 06:19:30;;;;;;;;;;;21.70;97.10;;;;;;5035168;28;19932;-77
2022/10/07 06:21:57;;;;;;;;;;;21.70;97.00;;;;;;5034804;28;20016;-77
2022/10/07 06:24:25;;;;;;;;;;;21.70;96.90;;;;;;5034516;28;19964;-77
2022/10/07 06:26:54;;;;;;;;;;;21.70;96.90;;;;;;5034693;28;20028;-77
2022/10/07 06:29:21;;;;;;;;;;;21.70;96.80;;;;;;5034709;28;19975;-77
2022/10/07 06:31:47;;;;;;;;;;;21.70;96.70;;;;;;5034378;28;20020;-77
2022/10/07 06:34:14;;;;;;;;;;;21.70;96.70;;;;;;5034335;28;20435;-77
2022/10/07 06:36:41;;;;;;;;;;;21.60;96.60;;;;;;5034292;28;20419;-77
2022/10/07 06:39:07;;;;;;;;;;;21.60;96.50;;;;;;5034580;28;19987;-77
2022/10/07 06:41:34;;;;;;;;;;;21.60;96.50;;;;;;5034455;28;20028;-77
2022/10/07 06:44:02;;;;;;;;;;;21.60;96.40;;;;;;5034500;28;19932;-77
2022/10/07 06:46:29;;;;;;;;;;;21.60;96.40;;;;;;5034284;28;20004;-77
2022/10/07 06:48:57;;;;;;;;;;;21.60;96.30;;;;;;5034439;28;19932;-77
2022/10/07 06:51:23;;;;;;;;;;;21.60;96.20;;;;;;5034036;28;20027;-77
2022/10/07 06:53:51;;;;;;;;;;;21.60;96.10;;;;;;5034058;28;19925;-77
2022/10/07 06:56:18;;;;;;;;;;;21.60;96.10;;;;;;5034252;28;19932;-77
2022/10/07 06:58:45;;;;;;;;;;;21.60;96.10;;;;;;5033983;28;20447;-77
2022/10/07 07:01:13;;;;;;;;;;;21.60;96.10;;;;;;5033846;28;20348;-77
2022/10/07 07:03:40;;;;;;;;;;;21.60;96.10;;;;;;5034174;28;20020;-77
2022/10/07 07:06:07;;;;;;;;;;;21.60;96.10;;;;;;5034120;28;19932;-77
2022/10/07 07:08:34;;;;;;;;;;;21.60;96.10;;;;;;5034149;28;19947;-77
2022/10/07 07:11:02;;;;;;;;;;;21.60;96.00;;;;;;5034204;28;20012;-77
2022/10/07 07:13:28;;;;;;;;;;;21.60;95.90;;;;;;5034094;28;19979;-77
2022/10/07 07:15:56;;;;;;;;;;;21.60;95.90;;;;;;5034003;28;20020;-77
2022/10/07 07:18:24;;;;;;;;;;;21.60;95.80;;;;;;5034087;28;20027;-77
2022/10/07 07:20:51;;;;;;;;;;;21.60;95.80;;;;;;5033936;28;19940;-77
2022/10/07 07:23:18;;;;;;;;;;;21.60;95.70;;;;;;5033650;28;20451;-77
2022/10/07 07:25:44;;;;;;;;;;;21.60;95.60;;;;;;5033873;28;19976;-77
2022/10/07 07:28:12;;;;;;;;;;;21.60;95.60;;;;;;5033961;28;20343;-77
2022/10/07 07:30:39;;;;;;;;;;;21.60;95.50;;;;;;5033933;28;19964;-77
2022/10/07 07:33:06;;;;;;;;;;;21.60;95.50;;;;;;5033587;28;20392;-77
2022/10/07 07:35:37;;;;;;;;;;;21.50;95.40;;;;;;5033833;28;20008;-77
2022/10/07 07:38:03;;;;;;;;;;;21.60;95.40;;;;;;5033937;28;20078;-78
2022/10/07 07:40:30;;;;;;;;;;;21.50;95.30;;;;;;5033768;28;20304;-77
2022/10/07 07:42:57;;;;;;;;;;;21.50;95.20;;;;;;5033838;28;19925;-77
2022/10/07 07:45:23;;;;;;;;;;;21.50;95.20;;;;;;5033544;28;20008;-77
2022/10/07 07:47:50;;;;;;;;;;;21.50;95.10;;;;;;5033765;28;19947;-77
2022/10/07 07:50:19;;;;;;;;;;;21.50;95.10;;;;;;5033733;28;20016;-77
2022/10/07 07:52:47;;;;;;;;;;;21.50;95.00;;;;;;5033743;28;19932;-77
2022/10/07 07:55:14;;;;;;;;;;;21.50;95.00;;;;;;5033869;28;19935;-76
2022/10/07 07:57:41;;;;;;;;;;;21.50;94.90;;;;;;5033375;28;19926;-76
2022/10/07 08:00:09;;;;;;;;;;;21.50;94.80;;;;;;5033584;28;19964;-76
2022/10/07 08:02:36;;;;;;;;;;;21.50;94.80;;;;;;5033524;28;20389;-76
2022/10/07 08:05:03;;;;;;;;;;;21.50;94.80;;;;;;5037425;28;19976;-76
2022/10/07 08:07:31;;;;;;;;;;;21.50;94.70;;;;;;5037072;28;20292;-76
2022/10/07 08:09:59;;;;;;;;;;;21.50;94.60;;;;;;5037440;28;20012;-76
2022/10/07 08:12:26;;;;;;;;;;;21.50;94.60;;;;;;5037210;28;20368;-76
2022/10/07 08:14:53;;;;;;;;;;;21.50;94.50;;;;;;5037184;28;19925;-76
2022/10/07 08:17:20;;;;;;;;;;;21.50;94.50;;;;;;5037428;28;19925;-76
2022/10/07 08:19:47;;;;;;;;;;;21.50;94.40;;;;;;5037190;28;20012;-78
2022/10/07 08:22:16;;;;;;;;;;;21.50;94.40;;;;;;5037055;28;19926;-77
2022/10/07 08:24:43;;;;;;;;;;;21.50;94.30;;;;;;5037024;28;19925;-77
2022/10/07 08:27:11;;;;;;;;;;;21.50;94.30;;;;;;5037035;28;19971;-77
2022/10/07 08:29:38;;;;;;;;;;;21.50;94.20;;;;;;5037084;28;20019;-77
2022/10/07 08:32:05;;;;;;;;;;;21.50;94.20;;;;;;5036956;28;20023;-76
2022/10/07 08:34:32;;;;;;;;;;;21.50;94.10;;;;;;5036811;28;20079;-76
2022/10/07 08:36:58;;;;;;;;;;;21.50;94.10;;;;;;5036883;28;19967;-76
2022/10/07 08:39:28;;;;;;;;;;;21.50;94.10;;;;;;5036809;28;20019;-76
2022/10/07 08:41:58;;;;;;;;;;;21.50;94.00;;;;;;5036723;28;19929;-76
2022/10/07 08:44:30;;;;;;;;;;;21.50;94.00;;;;;;5036759;28;20012;-76
2022/10/07 08:47:00;;;;;;;;;;;21.50;93.90;;;;;;5036708;28;19929;-76
2022/10/07 08:49:30;;;;;;;;;;;21.50;93.90;;;;;;5036649;28;19995;-76
2022/10/07 08:51:59;;;;;;;;;;;21.40;93.80;;;;;;5036279;28;20380;-76
2022/10/07 08:54:28;;;;;;;;;;;21.50;93.80;;;;;;5036767;28;20008;-76
2022/10/07 08:56:55;;;;;;;;;;;21.50;93.70;;;;;;5036409;28;19925;-77
2022/10/07 08:59:27;;;;;;;;;;;21.50;93.60;;;;;;5036567;28;20020;-78
2022/10/07 09:02:01;;;;;;;;;;;21.50;93.60;;;;;;5036908;28;19925;-77
2022/10/07 09:04:33;;;;;;;;;;;21.50;93.60;;;;;;5036770;28;19925;-77
2022/10/07 09:07:02;;;;;;;;;;;21.50;93.60;;;;;;5036539;28;20028;-78
2022/10/07 09:09:33;;;;;;;;;;;21.50;93.60;;;;;;5036647;28;20012;-77
2022/10/07 09:12:03;;;;;;;;;;;21.50;93.60;;;;;;5036941;28;20460;-78
2022/10/07 09:14:31;;;;;;;;;;;21.50;93.60;;;;;;5037207;28;19925;-78
2022/10/07 17:19:43;;;;;;;;;;;19.30;99.90;;;;;;5112836;27;19912;-77
2022/10/07 17:22:10;;;;;;;;;;;19.60;99.90;;;;;;5112369;28;20023;-77
2022/10/07 17:24:37;;;;;;;;;;;20.10;99.90;;;;;;5112638;28;19924;-77
2022/10/07 17:27:06;;;;;;;;;;;20.40;99.90;;;;;;5112821;28;20019;-77
2022/10/07 17:29:34;;;;;;;;;;;20.70;99.90;;;;;;5112661;28;19924;-77
2022/10/07 17:32:01;;;;;;;;;;;20.90;99.90;;;;;;5112996;28;19977;-77
2022/10/07 17:34:28;;;;;;;;;;;21.00;99.90;;;;;;5112654;28;19930;-77
2022/10/07 17:36:57;;;;;;;;;;;21.10;99.90;;;;;;5112426;28;19928;-77
2022/10/07 17:39:24;;;;;;;;;;;21.20;99.90;;;;;;5112619;28;19935;-77
2022/10/07 17:41:51;;;;;;;;;;;21.20;99.90;;;;;;5112431;28;20007;-77
2022/10/07 17:44:18;;;;;;;;;;;21.30;99.90;;;;;;5112539;28;19971;-77
2022/10/07 17:46:47;;;;;;;;;;;21.30;99.90;;;;;;5112367;28;19928;-78
2022/10/07 17:49:14;;;;;;;;;;;21.40;99.90;;;;;;5112403;28;19963;-78
2022/10/07 17:51:42;;;;;;;;;;;21.40;99.90;;;;;;5112149;28;20015;-77
2022/10/07 17:54:12;;;;;;;;;;;21.50;99.90;;;;;;5112153;28;19924;-78
2022/10/07 17:56:39;;;;;;;;;;;21.50;99.90;;;;;;5112331;28;20252;-77
2022/10/07 17:59:05;;;;;;;;;;;21.50;99.90;;;;;;5112109;28;20285;-77
2022/10/07 18:01:33;;;;;;;;;;;21.50;99.90;;;;;;5112324;28;20026;-77
2022/10/07 18:04:00;;;;;;;;;;;21.50;99.90;;;;;;5112051;28;20014;-77
2022/10/07 18:06:29;;;;;;;;;;;21.60;99.90;;;;;;5112384;28;20014;-77
2022/10/07 18:08:57;;;;;;;;;;;21.60;99.90;;;;;;5111508;28;19954;-77
2022/10/07 18:15:18;;;;;;;;;;;21.60;99.90;;;;;;5112051;28;19931;-77
2022/10/07 18:16:56;;;;;;;;;;;21.60;99.90;;;;;;5110965;28;20302;-77
2022/10/07 18:19:23;;;;;;;;;;;21.60;99.90;;;;;;5111222;28;19963;-77
2022/10/07 18:21:50;;;;;;;;;;;21.60;99.90;;;;;;5111184;28;20022;-77
2022/10/07 18:24:17;;;;;;;;;;;21.70;99.90;;;;;;5110826;28;20441;-77
2022/10/07 18:26:45;;;;;;;;;;;21.70;99.90;;;;;;5111033;28;19978;-77
2022/10/07 18:29:11;;;;;;;;;;;21.70;99.90;;;;;;5108568;28;19934;-78
2022/10/07 18:31:38;;;;;;;;;;;21.70;99.90;;;;;;5097922;28;19963;-78
2022/10/07 18:34:05;;;;;;;;;;;21.70;99.90;;;;;;5098551;28;19939;-78
2022/10/07 18:36:31;;;;;;;;;;;21.70;99.90;;;;;;5099046;28;20011;-78
2022/10/07 18:38:58;;;;;;;;;;;21.70;99.90;;;;;;5097713;28;20022;-78
2022/10/07 18:41:25;;;;;;;;;;;21.70;99.90;;;;;;5097333;28;20026;-79
2022/10/07 18:43:54;;;;;;;;;;;21.70;99.90;;;;;;5096804;28;20450;-77
2022/10/07 18:46:21;;;;;;;;;;;21.70;99.90;;;;;;5101219;28;19970;-80
2022/10/07 18:48:48;;;;;;;;;;;21.70;99.90;;;;;;5101464;28;19924;-79
2022/10/07 18:51:15;;;;;;;;;;;21.70;99.90;;;;;;5100443;28;19930;-81
2022/10/07 18:53:43;;;;;;;;;;;21.70;99.90;;;;;;5099035;28;19924;-80
2022/10/07 18:56:10;;;;;;;;;;;21.70;99.90;;;;;;5098788;28;20018;-80
2022/10/07 18:58:38;;;;;;;;;;;21.80;99.90;;;;;;5099081;28;20015;-80
2022/10/07 19:01:06;;;;;;;;;;;21.80;99.90;;;;;;5097832;28;19971;-78
2022/10/07 19:03:33;;;;;;;;;;;21.70;99.90;;;;;;5096895;28;20343;-78
2022/10/07 19:06:02;;;;;;;;;;;21.80;99.90;;;;;;5097946;28;19924;-77
2022/10/07 19:08:29;;;;;;;;;;;21.80;99.90;;;;;;5099417;28;20295;-79
2022/10/07 19:10:56;;;;;;;;;;;21.70;99.90;;;;;;5105549;28;19955;-80
2022/10/07 19:16:08;;;;;;;;;;;21.80;99.90;;;;;;5103217;28;19981;-80
2022/10/07 19:18:35;;;;;;;;;;;21.80;99.90;;;;;;5103069;28;20015;-80
2022/10/07 19:21:02;;;;;;;;;;;21.80;99.90;;;;;;5103960;28;20015;-80
2022/10/07 19:23:29;;;;;;;;;;;21.80;99.90;;;;;;5104289;28;20386;-79
2022/10/07 19:25:56;;;;;;;;;;;21.80;99.90;;;;;;5101797;28;20379;-80
2022/10/07 19:28:22;;;;;;;;;;;21.80;99.90;;;;;;5102642;28;20340;-80
2022/10/07 19:30:49;;;;;;;;;;;21.80;99.90;;;;;;5101942;28;19974;-80
2022/10/07 19:33:18;;;;;;;;;;;21.80;99.90;;;;;;5102362;28;19928;-80
2022/10/07 19:35:46;;;;;;;;;;;21.80;99.90;;;;;;5102173;28;19962;-80
2022/10/07 19:38:13;;;;;;;;;;;21.80;99.90;;;;;;5101437;28;20444;-79
2022/10/07 19:40:40;;;;;;;;;;;21.80;99.90;;;;;;5102236;28;19967;-80
2022/10/07 19:43:09;;;;;;;;;;;21.80;99.90;;;;;;5100627;28;20399;-80
2022/10/07 19:45:36;;;;;;;;;;;21.80;99.90;;;;;;5099508;28;20019;-78
2022/10/07 19:48:03;;;;;;;;;;;21.80;99.90;;;;;;5099412;28;19966;-79
2022/10/07 19:50:31;;;;;;;;;;;21.80;99.90;;;;;;5098597;28;19924;-79
2022/10/07 19:52:58;;;;;;;;;;;21.80;99.90;;;;;;5100081;28;20015;-78
2022/10/07 19:55:27;;;;;;;;;;;21.80;99.90;;;;;;5098221;28;20391;-77
2022/10/07 19:57:54;;;;;;;;;;;21.70;99.90;;;;;;5096712;28;19924;-77
2022/10/07 20:00:21;;;;;;;;;;;21.80;99.90;;;;;;5096894;28;20010;-78
2022/10/07 20:02:48;;;;;;;;;;;21.80;99.90;;;;;;5095331;28;19924;-77
2022/10/07 20:05:15;;;;;;;;;;;21.80;99.90;;;;;;5095770;28;20403;-77
2022/10/07 20:07:43;;;;;;;;;;;21.80;99.90;;;;;;5096657;28;20023;-79
2022/10/07 20:10:09;;;;;;;;;;;21.70;99.90;;;;;;5097843;28;19984;-78
2022/10/07 20:12:38;;;;;;;;;;;21.80;99.90;;;;;;5096980;28;20015;-78
2022/10/07 20:15:05;;;;;;;;;;;21.80;99.90;;;;;;5095269;28;19924;-77
2022/10/07 20:17:32;;;;;;;;;;;21.80;99.90;;;;;;5097536;28;20024;-77
2022/10/07 20:19:58;;;;;;;;;;;21.80;99.90;;;;;;5097413;28;19963;-77
2022/10/07 20:22:25;;;;;;;;;;;21.80;99.90;;;;;;5097784;28;20015;-77
2022/10/07 20:24:54;;;;;;;;;;;21.60;99.90;;;;;;5096231;28;20374;-77
2022/10/07 20:27:21;;;;;;;;;;;21.80;99.90;;;;;;5096449;28;19924;-78
2022/10/07 20:30:01;;;;;;;;;;;21.70;99.90;;;;;;5097014;28;19968;-78
2022/10/07 20:32:28;;;;;;;;;;;21.80;99.90;;;;;;5094831;28;19973;-77
2022/10/07 20:34:55;;;;;;;;;;;21.80;99.90;;;;;;5094874;28;20018;-77
2022/10/07 20:37:22;;;;;;;;;;;21.80;99.90;;;;;;5094931;28;20030;-77
2022/10/07 20:42:31;;;;;;;;;;;21.80;99.90;;;;;;5071590;28;19920;-75
2022/10/07 20:44:58;;;;;;;;;;;21.80;99.90;;;;;;5094249;28;19973;-75
2022/10/07 20:47:25;;;;;;;;;;;21.80;99.90;;;;;;5094146;28;19931;-75
2022/10/07 20:49:54;;;;;;;;;;;21.70;99.90;;;;;;5094515;28;19931;-75
2022/10/07 20:52:21;;;;;;;;;;;21.80;99.90;;;;;;5093914;28;19924;-75
2022/10/07 20:54:48;;;;;;;;;;;21.80;99.90;;;;;;5094122;28;20438;-74
2022/10/07 20:57:16;;;;;;;;;;;21.80;99.90;;;;;;5094381;28;20011;-74
2022/10/07 20:59:44;;;;;;;;;;;21.80;99.90;;;;;;5094345;28;20007;-74
2022/10/07 21:02:12;;;;;;;;;;;21.80;99.90;;;;;;5094397;28;20007;-75
2022/10/07 21:04:38;;;;;;;;;;;21.80;99.90;;;;;;5094054;28;20328;-75
2022/10/07 21:07:07;;;;;;;;;;;21.80;99.90;;;;;;5094238;28;19950;-74
2022/10/07 21:09:35;;;;;;;;;;;21.80;99.90;;;;;;5094301;28;19946;-74
2022/10/07 21:12:06;;;;;;;;;;;21.80;99.90;;;;;;5094273;28;19924;-75
2022/10/07 21:14:32;;;;;;;;;;;21.80;99.90;;;;;;5094004;28;19976;-75
2022/10/07 21:17:01;;;;;;;;;;;21.80;99.90;;;;;;5094111;28;20010;-76
2022/10/07 21:19:28;;;;;;;;;;;21.80;99.90;;;;;;5094027;28;19924;-75
2022/10/07 21:21:54;;;;;;;;;;;21.80;99.90;;;;;;5094154;28;19931;-75
2022/10/07 21:24:21;;;;;;;;;;;21.80;99.90;;;;;;5094186;28;20015;-75
2022/10/07 21:26:47;;;;;;;;;;;21.80;99.90;;;;;;5094098;28;20002;-75
2022/10/07 21:29:14;;;;;;;;;;;21.80;99.90;;;;;;5094082;28;19924;-75
2022/10/07 21:31:41;;;;;;;;;;;21.80;99.90;;;;;;5094091;28;19964;-76
2022/10/07 21:34:09;;;;;;;;;;;21.80;99.90;;;;;;5094630;28;19924;-75
2022/10/07 21:36:37;;;;;;;;;;;21.70;99.90;;;;;;5093924;28;19971;-75
2022/10/07 21:39:04;;;;;;;;;;;21.80;99.90;;;;;;5093960;28;19923;-76
2022/10/07 21:41:33;;;;;;;;;;;21.80;99.90;;;;;;5093631;28;20478;-76
2022/10/07 21:44:00;;;;;;;;;;;21.80;99.90;;;;;;5093963;28;19931;-76
2022/10/07 21:46:28;;;;;;;;;;;21.70;99.90;;;;;;5093887;28;19924;-75
2022/10/07 21:48:55;;;;;;;;;;;21.80;99.90;;;;;;5093891;28;20014;-75
2022/10/07 21:51:25;;;;;;;;;;;21.80;99.90;;;;;;5093664;28;20447;-76
2022/10/07 21:53:53;;;;;;;;;;;21.80;99.90;;;;;;5093981;28;20298;-76
2022/10/07 21:56:20;;;;;;;;;;;21.80;99.90;;;;;;5093811;28;20015;-76
2022/10/07 21:58:48;;;;;;;;;;;21.80;99.90;;;;;;5093760;28;20019;-76
2022/10/07 22:01:15;;;;;;;;;;;21.80;99.90;;;;;;5093784;28;19925;-76
2022/10/07 22:03:42;;;;;;;;;;;21.80;99.90;;;;;;5093441;28;20015;-76
2022/10/07 22:06:10;;;;;;;;;;;21.80;99.90;;;;;;5096557;28;20386;-76
2022/10/07 22:08:38;;;;;;;;;;;21.80;99.90;;;;;;5097201;28;20268;-76
2022/10/07 22:11:05;;;;;;;;;;;21.80;99.90;;;;;;5097568;28;20272;-76
2022/10/07 22:13:33;;;;;;;;;;;21.80;99.90;;;;;;5097502;28;20343;-76
2022/10/07 22:16:00;;;;;;;;;;;21.80;99.90;;;;;;5097070;28;20414;-76
2022/10/07 22:18:32;;;;;;;;;;;21.80;99.90;;;;;;5097042;28;19924;-77
2022/10/07 22:20:59;;;;;;;;;;;21.80;99.90;;;;;;5097393;28;19928;-77
2022/10/07 22:23:26;;;;;;;;;;;21.80;99.90;;;;;;5097450;28;20010;-76
2022/10/07 22:25:59;;;;;;;;;;;21.80;99.90;;;;;;5097132;28;19924;-76
2022/10/07 22:28:26;;;;;;;;;;;21.80;99.90;;;;;;5097212;28;20007;-76
2022/10/07 22:30:53;;;;;;;;;;;21.80;99.90;;;;;;5097273;28;19924;-76
2022/10/07 22:33:19;;;;;;;;;;;21.80;99.90;;;;;;5097112;28;20015;-76
2022/10/07 22:35:46;;;;;;;;;;;21.80;99.90;;;;;;5096681;28;19978;-76
2022/10/07 22:38:13;;;;;;;;;;;21.80;99.90;;;;;;5096739;28;20053;-76
2022/10/07 22:40:39;;;;;;;;;;;21.80;99.90;;;;;;5096631;28;19931;-76
2022/10/07 22:43:08;;;;;;;;;;;21.80;99.90;;;;;;5096595;28;19927;-76
